Valley Peak, Santa Cruz Island Reserve, California Weather observations

Data are for 10 minute period ending at time listed.
 Day   Time   Solar   Ave.   Ave.  Ave.  Vector  Max.   Baro.   Total    
  of    of     Rad.   Air    Rel.  Wind   Wind   Wind  Press.  Precip.   
Year   Day            Temp.  Hum.  Speed  Dir.   Gust                    
2015   (PST)  Kw/m2    F      %     mph   deg.    mph    mb.     in.     
-------------------------------------------------------------------------
  89    0:30   0.00   60.4    57    4.8    43     5.6   966.8    0.00 
  89    0:40   0.00   59.6    58    5.1    84     8.2   966.7    0.00 
  89    0:50   0.00   60.1    49    7.6   109     9.9   966.6    0.00 
  89    1:00   0.00   61.2    47    9.2   111    11.0   966.5    0.00 
  89    1:10   0.00   61.7    44    9.7   115    12.0   966.4    0.00 
  89    1:20   0.00   61.8    42   10.7   117    11.9   966.3    0.00 
  89    1:30   0.00   62.2    43    9.6   116    11.2   966.3    0.00 
  89    1:40   0.00   62.2    46    8.4   110    10.2   966.3    0.00 
  89    1:50   0.00   61.4    46    8.9   112    11.1   966.3    0.00 
  89    2:00   0.00   61.4    47   10.1   121    11.0   966.3    0.00 
  89    2:10   0.00   61.1    47   10.3   128    11.6   966.2    0.00 
  89    2:20   0.00   61.0    46    8.8   131    10.4   966.1    0.00 
  89    2:30   0.00   60.5    49    8.2   135     9.1   966.1    0.00 
  89    2:40   0.00   59.4    54    7.7   138     9.0   966.0    0.00 
  89    2:50   0.00   58.5    56    8.0   131     9.0   966.0    0.00 
  89    3:00   0.00   57.7    58    8.9   135    10.2   966.0    0.00 
  89    3:10   0.00   56.4    65    8.0   121    10.1   966.0    0.00 
  89    3:20   0.00   56.1    63    4.6    67     6.4   966.1    0.00 
  89    3:30   0.00   56.2    63    4.5    75     6.5   966.1    0.00 
  89    3:40   0.00   56.2    63    5.1   100     6.1   966.1    0.00 
  89    3:50   0.00   56.1    62    5.1   105     5.8   966.1    0.00 
  89    4:00   0.00   57.1    59    5.9   120     6.6   966.1    0.00 
  89    4:10   0.00   57.8    57    5.3   105     6.6   966.1    0.00 
  89    4:20   0.00   57.8    56    4.3    77     5.6   966.2    0.00 
  89    4:30   0.00   58.5    51    4.5   103     5.3   966.3    0.00 
  89    4:40   0.00   58.7    51    5.2   108     5.8   966.4    0.00 
  89    4:50   0.00   58.5    49    3.8    89     5.3   966.4    0.00 
  89    5:00   0.00   58.7    48    3.1    74     3.9   966.5    0.00 
  89    5:10   0.00   59.3    48    2.7    64     3.4   966.5    0.00 
  89    5:20   0.00   59.4    48    2.5   134     3.7   966.5    0.00 
  89    5:30   0.00   59.9    48    2.4   160     3.1   966.5    0.00 
  89    5:40   0.00   60.0    49    2.1   176     3.4   966.6    0.00 
  89    5:50   0.00   60.3    46    3.3   168     3.9   966.7    0.00 
  89    6:00   0.00   61.4    42    2.3   174     2.9   966.8    0.00 
  89    6:10   0.02   62.2    42    1.5   179     1.9   966.9    0.00 
  89    6:20   0.05   62.4    43    1.4   212     1.7   967.0    0.00 
  89    6:30   0.09   62.8    43    1.3   196     1.8   967.1    0.00 
  89    6:40   0.13   62.9    42    0.4   105     1.8   967.1    0.00 
  89    6:50   0.17   63.5    44    0.9    48     1.8   967.1    0.00 
  89    7:00   0.20   63.9    40    0.6   146     1.4   967.2    0.00 
  89    7:10   0.24   64.6    37    0.4     2     2.0   967.1    0.00 
  89    7:20   0.28   65.4    40    1.0    50     2.0   967.1    0.00 
  89    7:30   0.32   65.7    42    0.1     1     0.9   967.2    0.00 
  89    7:40   0.36   66.4    41    0.2   208     1.4   967.3    0.00 
  89    7:50   0.40   67.7    37    1.7    61     3.1   967.3    0.00 
  89    8:00   0.44   69.5    35    2.3    60     3.3   967.2    0.00 
  89    8:10   0.47   71.0    32    2.2    64     3.7   967.2    0.00 
  89    8:20   0.51   71.7    32    2.3    60     3.1   967.1    0.00 
  89    8:30   0.55   72.7    30    2.0    62     3.1   967.1    0.00 
  89    8:40   0.58   72.2    29    1.4   215     2.3   967.2    0.00 
  89    8:50   0.61   69.6    35    0.7   216     2.0   967.2    0.00 
  89    9:00   0.64   71.1    45    0.9    58     2.4   967.2    0.00 
  89    9:10   0.67   72.2    48    2.0    64     3.6   967.2    0.00 
  89    9:20   0.70   72.6    50    2.1    63     3.1   967.3    0.00 
  89    9:30   0.73   72.7    54    1.6   109     3.7   967.4    0.00 
  89    9:40   0.75   69.0    58    2.7   183     4.7   967.5    0.00 
  89    9:50   0.77   66.7    61    3.0   176     6.0   967.6    0.00 
  89   10:00   0.80   67.0    58    3.2   188     5.9   967.7    0.00 
  89   10:10   0.82   67.9    55    2.2   190     4.5   967.7    0.00 
  89   10:20   0.84   70.2    57    1.7   178     3.8   967.7    0.00 
  89   10:30   0.86   72.1    57    1.8   119     4.9   967.7    0.00 
  89   10:40   0.87   73.2    55    1.9    95     4.3   967.7    0.00 
  89   10:50   0.89   73.8    54    2.2    64     3.9   967.6    0.00 
  89   11:00   0.90   72.7    55    2.2    56     4.1   967.6    0.00 
  89   11:10   0.91   70.6    60    1.8   360     5.3   967.6    0.00 
  89   11:20   0.92   72.2    56    1.7    66     3.8   967.6    0.00 
  89   11:30   0.93   72.6    56    1.2    46     3.1   967.6    0.00 
  89   11:40   0.93   72.8    56    1.8    51     5.0   967.5    0.00 
  89   11:50   0.94   73.0    56    1.2   354     4.4   967.5    0.00 
  89   12:00   0.94   73.6    54    1.5    78     5.1   967.4    0.00 
  89   12:10   0.94   74.8    52    2.8   119     6.4   967.4    0.00 
  89   12:20   0.93   76.1    50    2.6   106     5.5   967.3    0.00 
  89   12:30   0.93   75.5    52    3.4   106     7.1   967.3    0.00 
  89   12:40   0.92   74.8    53    2.5    65     6.0   967.2    0.00 
  89   12:50   0.91   74.5    53    2.3    72     4.7   967.2    0.00 
  89   13:00   0.90   75.2    52    2.3    57     4.2   967.1    0.00 
  89   13:10   0.89   73.2    55    2.1    41     4.0   966.9    0.00 
  89   13:20   0.88   73.9    54    2.3    45     5.0   966.9    0.00 
  89   13:30   0.86   71.2    58    3.5    35     5.4   966.8    0.00 
  89   13:40   0.84   68.4    61    3.8   352     5.6   966.6    0.00 
  89   13:50   0.82   68.3    59    3.5   354     6.9   966.4    0.00 
  89   14:00   0.80   67.9    63    3.7    17     6.5   966.2    0.00 
  89   14:10   0.78   67.1    64    3.0   353     4.9   966.1    0.00 
  89   14:20   0.76   67.5    61    2.8   359     5.1   966.0    0.00 
  89   14:30   0.73   67.3    64    3.4    16     5.0   965.9    0.00 
  89   14:40   0.70   68.8    61    2.1    23     4.5   965.8    0.00 
  89   14:50   0.67   70.1    60    2.3    14     5.4   965.8    0.00 
  89   15:00   0.64   70.3    59    1.9   246     6.7   965.7    0.00 
  89   15:10   0.61   70.7    58    3.4    24     5.3   965.8    0.00 
  89   15:20   0.58   69.3    60    3.3    10     6.4   965.8    0.00 
  89   15:30   0.54   68.8    58    3.8     3     5.8   965.7    0.00 
  89   15:40   0.51   68.6    53    2.6   331     4.7   965.6    0.00 
  89   15:50   0.48   70.7    52    2.8   240     6.4   965.5    0.00 
  89   16:00   0.44   72.9    54    2.3   198     6.1   965.3    0.00 
  89   16:10   0.40   73.1    55    2.3   225     5.6   965.3    0.00 
  89   16:20   0.37   75.3    45    1.2   208     4.2   965.3    0.00 
  89   16:30   0.33   76.1    48    1.4   238     3.4   965.3    0.00 
  89   16:40   0.29   72.9    42    1.8   324     4.1   965.2    0.00 
  89   16:50   0.25   69.8    49    3.6   338     5.1   965.1    0.00 
  89   17:00   0.22   68.1    49    3.8   337     5.7   965.0    0.00 
  89   17:10   0.18   67.3    52    4.3   356     5.8   964.9    0.00 
  89   17:20   0.14   65.8    55    5.2    22     5.9   964.9    0.00 
  89   17:30   0.11   65.6    59    4.7    21     5.3   964.8    0.00 
  89   17:40   0.08   64.0    65    5.4    12     6.9   964.8    0.00 
  89   17:50   0.05   63.2    62    5.1   354     6.9   964.8    0.00 
  89   18:00   0.03   63.0    60    3.7   344     5.8   964.8    0.00 
  89   18:10   0.01   65.9    56    1.6   190     3.4   964.8    0.00 
  89   18:20   0.00   66.3    63    2.0   186     2.9   964.9    0.00 
  89   18:30   0.00   65.9    58    2.4   266     4.9   965.0    0.00 
  89   18:40   0.00   65.9    59    2.3   233     4.9   965.1    0.00 
  89   18:50   0.00   65.0    62    3.0   178     4.5   965.2    0.00 
  89   19:00   0.00   64.5    62    2.2   221     5.9   965.3    0.00 
  89   19:10   0.00   64.2    58    3.2   278    10.2   965.4    0.00 
  89   19:20   0.00   65.2    50    4.6   267     9.9   965.5    0.00 
  89   19:30   0.00   66.4    44    4.1   283    10.5   965.6    0.00 
  89   19:40   0.00   66.8    40    4.2   306     8.8   965.6    0.00 
  89   19:50   0.00   66.8    38    6.2   297    10.7   965.7    0.00 
  89   20:00   0.00   67.0    38    4.4   297     8.3   965.8    0.00 
  89   20:10   0.00   66.4    41    4.9   290     7.7   965.9    0.00 
  89   20:20   0.00   66.1    38    6.1   282    10.9   966.0    0.00 
  89   20:30   0.00   66.6    35    7.0   284    13.8   966.1    0.00 
  89   20:40   0.00   66.7    34    4.3   290     7.7   966.1    0.00 
  89   20:50   0.00   66.6    33    6.2   300    10.2   966.1    0.00 
  89   21:00   0.00   66.9    32    4.7   294     8.9   966.1    0.00 
  89   21:10   0.00   67.1    31    5.7   282    10.7   966.1    0.00 
  89   21:20   0.00   67.4    30    5.6   302    10.2   966.0    0.00 
  89   21:30   0.00   66.9    31    5.0   284     9.1   966.1    0.00 
  89   21:40   0.00   67.0    30    4.3   288     7.6   966.1    0.00 
  89   21:50   0.00   66.6    32    3.5   275     5.9   966.1    0.00 
  89   22:00   0.00   66.6    31    5.0   315    10.9   966.1    0.00 
  89   22:10   0.00   63.2    42    3.5   359     6.4   966.1    0.00 
  89   22:20   0.00   61.5    44    1.9   353     3.9   966.1    0.00 
  89   22:30   0.00   60.6    47    3.2    61     4.4   966.1    0.00 
  89   22:40   0.00   57.9    70    3.5   197     6.8   966.1    0.00 
  89   22:50   0.00   54.3    90    6.5   187     8.0   966.2    0.00 
  89   23:00   0.00   53.0    96    8.2   162    11.2   966.1    0.00 
  89   23:10   0.00   53.1    99    9.3   154    11.1   966.1    0.00 
  89   23:20   0.00   53.2    99    9.3   166    13.2   966.1    0.00 
  89   23:30   0.00   53.2   100    9.8   164    12.3   966.1    0.00 
  89   23:40   0.00   53.2   100   10.6   172    12.2   966.1    0.00 
  89   23:50   0.00   53.1   100   10.6   180    12.3   966.1    0.00 
  90    0:00   0.00   53.2   100   11.3   179    14.3   966.0    0.00 
  90    0:10   0.00   53.1   100   11.8   170    14.7   966.0    0.00 
  90    0:20   0.00   53.0   100   11.9   164    15.2   966.0    0.00 

Return to Valley Peak, Santa Cruz Island Reserve graphs page.


Western Regional Climate Center,wrcc@dri.edu